Fremont, Iowa
Current Conditions -  °F | °C
As of 1:55 AM on Saturday 25 Oct 2014 (Local Time) from KOOA Reporting Station
Moderate Fog Moderate Fog  
Wind Chill: 49°   Ceiling: 100
Heat Index: 49°   Visibility: 0mi
Dew Point: 48°   Wind: 3mph
Humidity: 97%   Direction: 280°W
Pressure: 29.97"   Gusts: NA
Location:  41.21°N, 92.44°W
Report Text: KOOA 250655Z AUTO 28003KT M1/4SM FG OVC001 10/09 A2997 RMK AO2 T00950091
Loading
Personal Weather Stations






























Interactive Weather Map
Tropical Storm Tracking
New forecast layout! Learn more

10-Day Weather Forecast

Advertisements
Track Severe Weather on mobile